Time;durP1;ratioP1;P1;durP2;ratioP2;P2;SDS_P1;SDS_P2;PMS_P1;PMS_P2;Temp;Humidity;BMP_temperature;BMP_pressure;BME280_temperature;BME280_humidity;BME280_pressure;Samples;Min_cycle;Max_cycle;Signal;HPM_P1;HPM_P2
2024/01/26 00:01:43;;;;;;;;;;;;;;;18.32;59.24;101013.63;7394129;19;1922;-38
2024/01/26 00:04:11;;;;;;;;;;;;;;;18.28;59.22;101011.22;7392454;19;1921;-38
2024/01/26 00:06:40;;;;;;;;;;;;;;;18.33;59.32;101026.06;7393022;19;1869;-38
2024/01/26 00:09:12;;;;;;;;;;;;;;;18.37;59.34;101006.09;7393893;19;1507;-38
2024/01/26 00:11:41;;;;;;;;;;;;;;;18.33;59.09;101018.03;7396079;19;965;-38
2024/01/26 00:14:09;;;;;;;;;;;;;;;18.33;59.20;101021.56;7394551;19;1934;-38
2024/01/26 00:16:38;;;;;;;;;;;;;;;18.33;59.34;101021.56;7393917;19;1651;-38
2024/01/26 00:19:09;;;;;;;;;;;;;;;18.35;59.03;101024.94;7392215;19;1563;-38
2024/01/26 00:21:39;;;;;;;;;;;;;;;18.33;59.05;101010.00;7392991;19;1755;-38
2024/01/26 00:24:07;;;;;;;;;;;;;;;18.29;59.37;101004.88;7391888;19;1476;-38
2024/01/26 00:26:35;;;;;;;;;;;;;;;18.30;58.99;101021.78;7391140;19;1857;-37
2024/01/26 00:29:04;;;;;;;;;;;;;;;18.35;59.03;101024.09;7393411;19;1157;-37
2024/01/26 00:31:32;;;;;;;;;;;;;;;18.31;59.09;101022.66;7394232;19;1503;-38
2024/01/26 00:34:00;;;;;;;;;;;;;;;18.35;59.11;101013.41;7395035;19;1096;-37
2024/01/26 00:36:31;;;;;;;;;;;;;;;18.27;59.10;101025.56;7390973;19;1619;-38
2024/01/26 00:39:00;;;;;;;;;;;;;;;17.93;60.02;101027.44;7394574;19;1509;-37
2024/01/26 00:41:28;;;;;;;;;;;;;;;17.63;60.74;101028.00;7378234;19;1414;-37
2024/01/26 00:43:57;;;;;;;;;;;;;;;17.44;61.50;101036.59;7393784;19;1291;-38
2024/01/26 00:46:26;;;;;;;;;;;;;;;17.36;61.66;101034.50;7392190;19;1853;-38
2024/01/26 00:48:54;;;;;;;;;;;;;;;17.32;61.93;101025.03;7391306;19;1595;-37
2024/01/26 00:51:23;;;;;;;;;;;;;;;17.28;61.78;101007.53;7392616;19;1484;-37
2024/01/26 00:53:54;;;;;;;;;;;;;;;17.23;61.78;101004.34;7392235;19;1420;-37
2024/01/26 00:56:22;;;;;;;;;;;;;;;17.20;61.97;101017.97;7392314;19;1590;-38
2024/01/26 00:58:50;;;;;;;;;;;;;;;17.24;61.97;101022.94;7393520;19;1492;-37
2024/01/26 01:01:19;;;;;;;;;;;;;;;17.83;60.25;101008.59;7392938;19;1152;-37
2024/01/26 01:03:47;;;;;;;;;;;;;;;18.07;59.50;101020.97;7390803;19;1394;-37
2024/01/26 01:06:16;;;;;;;;;;;;;;;18.12;59.13;101008.06;7392172;19;1853;-38
2024/01/26 01:08:44;;;;;;;;;;;;;;;18.12;59.21;101013.41;7391399;19;1567;-38
2024/01/26 01:11:15;;;;;;;;;;;;;;;18.22;59.03;101019.75;7393542;19;1036;-38
2024/01/26 01:13:44;;;;;;;;;;;;;;;18.28;58.79;101000.53;7389327;19;1957;-37
2024/01/26 01:16:12;;;;;;;;;;;;;;;18.29;58.66;101001.34;7392544;19;1807;-37
2024/01/26 01:18:41;;;;;;;;;;;;;;;18.19;58.92;100987.88;7392044;19;1594;-38
2024/01/26 01:21:09;;;;;;;;;;;;;;;18.20;58.96;100984.19;7390626;19;1835;-38
2024/01/26 01:23:38;;;;;;;;;;;;;;;18.24;58.72;100974.97;7392005;19;1420;-38
2024/01/26 01:26:08;;;;;;;;;;;;;;;18.33;58.41;101008.16;7391891;19;1827;-37
2024/01/26 01:28:38;;;;;;;;;;;;;;;18.32;58.70;100986.88;7392927;19;1092;-37
2024/01/26 01:31:07;;;;;;;;;;;;;;;18.27;58.62;101004.16;7391846;19;1938;-38
2024/01/26 01:33:35;;;;;;;;;;;;;;;18.29;58.71;100994.16;7392068;19;1915;-38
2024/01/26 01:36:03;;;;;;;;;;;;;;;18.39;58.43;101004.97;7390126;19;1598;-38
2024/01/26 01:38:32;;;;;;;;;;;;;;;18.37;58.40;100990.03;7392014;19;1759;-38
2024/01/26 01:41:00;;;;;;;;;;;;;;;18.31;58.39;100995.88;7375959;19;1848;-38
2024/01/26 01:43:28;;;;;;;;;;;;;;;18.31;58.46;100995.88;7391021;19;1456;-37
2024/01/26 01:45:59;;;;;;;;;;;;;;;18.38;58.62;101008.66;7390304;19;1841;-37
2024/01/26 01:48:28;;;;;;;;;;;;;;;18.37;58.34;101000.72;7389163;19;1891;-37
2024/01/26 01:50:56;;;;;;;;;;;;;;;18.39;58.20;101014.84;7389933;19;1373;-37
2024/01/26 01:53:26;;;;;;;;;;;;;;;18.28;58.42;101026.41;7391667;19;1265;-38
2024/01/26 01:55:56;;;;;;;;;;;;;;;18.27;58.41;101014.88;7391147;19;1843;-37
2024/01/26 01:58:25;;;;;;;;;;;;;;;18.34;58.60;101006.31;7391760;19;1472;-38
2024/01/26 02:00:53;;;;;;;;;;;;;;;18.07;58.33;100960.28;7391830;19;1761;-38
2024/01/26 02:03:24;;;;;;;;;;;;;;;18.33;58.23;101004.63;7392431;19;1316;-37
2024/01/26 02:05:53;;;;;;;;;;;;;;;18.28;58.51;101016.56;7391648;19;1861;-38
2024/01/26 02:08:21;;;;;;;;;;;;;;;18.35;58.24;101005.38;7390208;19;1903;-38
2024/01/26 02:10:49;;;;;;;;;;;;;;;18.39;58.14;101007.66;7391502;19;1942;-38
2024/01/26 02:13:18;;;;;;;;;;;;;;;18.15;58.83;101017.69;7391974;19;1721;-37
2024/01/26 02:15:46;;;;;;;;;;;;;;;17.78;59.63;100997.34;7387105;19;1507;-38
2024/01/26 02:18:15;;;;;;;;;;;;;;;17.50;60.29;101007.56;7390607;19;1509;-37
2024/01/26 02:20:46;;;;;;;;;;;;;;;17.33;60.83;101005.38;7390693;19;1432;-38
2024/01/26 02:23:23;;;;;;;;;;;;;;;17.27;60.94;101006.69;7392788;19;1087;-37
2024/01/26 02:25:52;;;;;;;;;;;;;;;17.21;61.01;100992.91;7387995;19;1875;-38
2024/01/26 02:28:20;;;;;;;;;;;;;;;17.16;61.37;101006.66;7390789;19;1864;-37
2024/01/26 02:30:48;;;;;;;;;;;;;;;17.05;61.67;101001.25;7388163;19;1781;-37
2024/01/26 02:33:17;;;;;;;;;;;;;;;17.42;60.52;100999.28;7390834;19;1733;-37
2024/01/26 02:35:45;;;;;;;;;;;;;;;18.02;59.16;100997.25;7389793;19;1766;-38
2024/01/26 02:38:14;;;;;;;;;;;;;;;18.22;58.47;100981.41;7388345;19;1522;-38
2024/01/26 02:40:44;;;;;;;;;;;;;;;18.19;58.50;101003.09;7375327;19;1175;-38
2024/01/26 02:43:13;;;;;;;;;;;;;;;18.17;58.66;100992.50;7388683;19;1408;-38
2024/01/26 02:45:43;;;;;;;;;;;;;;;18.18;58.53;101010.25;7388081;19;1487;-38
2024/01/26 02:48:12;;;;;;;;;;;;;;;18.23;58.46;101020.59;7389173;19;1851;-38
2024/01/26 02:50:40;;;;;;;;;;;;;;;18.27;58.38;101012.19;7390007;19;1748;-37
2024/01/26 02:53:09;;;;;;;;;;;;;;;18.23;58.38;101004.53;7389467;19;1223;-37
2024/01/26 02:55:37;;;;;;;;;;;;;;;18.20;58.45;101021.69;7388862;19;1310;-38
2024/01/26 02:58:08;;;;;;;;;;;;;;;18.25;58.40;101019.50;7390857;19;1479;-37
2024/01/26 03:00:36;;;;;;;;;;;;;;;18.29;58.30;101014.75;7386646;19;1266;-38
2024/01/26 03:03:05;;;;;;;;;;;;;;;18.35;58.17;101005.38;7390012;19;1839;-38
2024/01/26 03:05:34;;;;;;;;;;;;;;;18.33;58.32;101010.00;7388264;19;1578;-38
2024/01/26 03:08:02;;;;;;;;;;;;;;;18.34;58.33;101006.31;7387953;19;1853;-38
2024/01/26 03:10:30;;;;;;;;;;;;;;;18.29;58.14;101010.22;7389458;19;1202;-37
2024/01/26 03:12:59;;;;;;;;;;;;;;;18.37;58.29;101016.81;7394061;19;1492;-37
2024/01/26 03:15:30;;;;;;;;;;;;;;;18.33;58.23;101004.63;7396100;19;1836;-37
2024/01/26 03:17:58;;;;;;;;;;;;;;;18.31;58.22;101011.94;7397824;19;1139;-37
2024/01/26 03:20:26;;;;;;;;;;;;;;;18.25;58.21;101018.66;7396046;19;1919;-38
2024/01/26 03:22:54;;;;;;;;;;;;;;;18.25;58.32;101005.25;7395754;19;1836;-38
2024/01/26 03:25:23;;;;;;;;;;;;;;;18.35;58.18;101014.25;7396239;19;1652;-38
2024/01/26 03:27:51;;;;;;;;;;;;;;;18.39;57.84;101009.50;7392967;19;1845;-38
2024/01/26 03:30:20;;;;;;;;;;;;;;;18.33;58.10;101020.72;7395814;19;1841;-37
2024/01/26 03:32:51;;;;;;;;;;;;;;;18.34;58.21;100999.13;7397383;19;1313;-38
2024/01/26 03:35:20;;;;;;;;;;;;;;;18.24;58.10;100988.34;7396555;19;1063;-37
2024/01/26 03:37:48;;;;;;;;;;;;;;;18.36;58.08;100982.97;7396974;19;1768;-37
2024/01/26 03:40:17;;;;;;;;;;;;;;;18.42;57.91;101006.53;7387322;19;1938;-38
2024/01/26 03:42:45;;;;;;;;;;;;;;;18.08;58.75;101001.25;7391293;19;1503;-38
2024/01/26 03:45:14;;;;;;;;;;;;;;;17.76;59.45;101012.69;7393580;19;1737;-37
2024/01/26 03:47:42;;;;;;;;;;;;;;;17.47;60.22;101020.34;7393369;19;1847;-37
2024/01/26 03:50:13;;;;;;;;;;;;;;;17.29;60.65;101015.44;7395376;19;1366;-37
2024/01/26 03:52:42;;;;;;;;;;;;;;;17.22;60.86;101021.38;7395340;19;1342;-38
2024/01/26 03:55:11;;;;;;;;;;;;;;;17.15;61.23;101030.81;7396679;19;1333;-37
2024/01/26 03:57:39;;;;;;;;;;;;;;;17.14;61.24;101021.09;7394709;19;1212;-39
2024/01/26 04:00:09;;;;;;;;;;;;;;;17.10;61.47;101031.16;7395264;19;1930;-37
2024/01/26 04:02:38;;;;;;;;;;;;;;;17.20;61.38;101034.00;7394705;19;1807;-38
2024/01/26 04:05:07;;;;;;;;;;;;;;;17.81;59.42;101017.69;7391147;19;1667;-37
2024/01/26 04:07:38;;;;;;;;;;;;;;;18.27;58.21;101011.34;7392848;19;1858;-37
2024/01/26 04:10:04;;;;;;;;;;;;;;;18.58;57.25;101019.53;7394262;19;1437;-37
2024/01/26 04:12:32;;;;;;;;;;;;;;;18.62;57.09;101021.84;7393403;19;1505;-37
2024/01/26 04:15:00;;;;;;;;;;;;;;;18.60;57.17;101023.81;7394370;19;1413;-38
2024/01/26 04:17:29;;;;;;;;;;;;;;;18.61;57.35;101030.84;7393837;19;1249;-38
2024/01/26 04:19:57;;;;;;;;;;;;;;;18.53;57.56;101049.38;7394757;19;1478;-37
2024/01/26 04:22:25;;;;;;;;;;;;;;;18.36;57.89;101041.84;7392689;19;1420;-38
2024/01/26 04:24:56;;;;;;;;;;;;;;;18.32;58.04;101045.75;7393465;19;1437;-38
2024/01/26 04:27:25;;;;;;;;;;;;;;;18.44;57.67;101059.03;7392300;19;1850;-38
2024/01/26 04:29:53;;;;;;;;;;;;;;;18.59;57.31;101037.31;7393645;19;1819;-38
2024/01/26 04:32:21;;;;;;;;;;;;;;;18.56;57.46;101054.50;7391121;19;1484;-37
2024/01/26 04:34:50;;;;;;;;;;;;;;;18.57;57.31;101050.81;7393566;19;1161;-38
2024/01/26 04:37:18;;;;;;;;;;;;;;;18.63;57.31;101054.84;7393065;19;1252;-38
2024/01/26 04:39:46;;;;;;;;;;;;;;;18.65;57.28;101076.97;7392082;19;1492;-38
2024/01/26 04:42:18;;;;;;;;;;;;;;;18.67;57.29;101067.00;7377758;19;1432;-38
2024/01/26 04:44:46;;;;;;;;;;;;;;;18.68;57.41;101064.19;7395865;19;1063;-37
2024/01/26 04:47:16;;;;;;;;;;;;;;;18.79;57.15;101084.75;7393043;19;1833;-38
2024/01/26 04:49:44;;;;;;;;;;;;;;;18.82;57.33;101089.00;7394285;19;1436;-37
2024/01/26 04:52:12;;;;;;;;;;;;;;;18.78;57.40;101082.16;7393684;19;1568;-37
2024/01/26 04:54:41;;;;;;;;;;;;;;;18.67;57.63;101094.63;7392378;19;1469;-38
2024/01/26 04:57:09;;;;;;;;;;;;;;;18.65;57.64;101085.88;7391996;19;1769;-38
2024/01/26 04:59:40;;;;;;;;;;;;;;;18.62;58.06;101094.16;7390833;19;1579;-38
2024/01/26 05:02:08;;;;;;;;;;;;;;;18.51;57.94;101098.69;7390078;19;1330;-38
2024/01/26 05:04:36;;;;;;;;;;;;;;;18.38;57.82;101101.50;7386429;19;1232;-38
2024/01/26 05:07:05;;;;;;;;;;;;;;;18.44;56.48;101090.28;7388746;19;1858;-38
2024/01/26 05:09:33;;;;;;;;;;;;;;;18.49;56.32;101104.16;7388595;19;1375;-38
2024/01/26 05:12:01;;;;;;;;;;;;;;;18.62;55.92;101075.41;7385819;19;1123;-38
2024/01/26 05:14:30;;;;;;;;;;;;;;;18.80;55.63;101090.97;7385254;19;1509;-38
2024/01/26 05:17:01;;;;;;;;;;;;;;;18.83;55.50;101082.69;7386067;19;1569;-38
2024/01/26 05:19:29;;;;;;;;;;;;;;;18.89;55.22;101079.50;7383075;19;1923;-38
2024/01/26 05:21:57;;;;;;;;;;;;;;;18.88;55.16;101070.63;7385726;19;1484;-38
2024/01/26 05:24:26;;;;;;;;;;;;;;;18.91;55.30;101074.03;7384250;19;1773;-38
2024/01/26 05:26:55;;;;;;;;;;;;;;;18.90;55.28;101078.53;7390835;19;1841;-38
2024/01/26 05:29:24;;;;;;;;;;;;;;;18.92;55.37;101087.31;7390435;19;1175;-38
2024/01/26 05:31:52;;;;;;;;;;;;;;;18.80;55.37;101066.84;7385600;19;1795;-38
2024/01/26 05:34:23;;;;;;;;;;;;;;;18.76;55.31;101082.31;7386962;19;1140;-38
2024/01/26 05:36:51;;;;;;;;;;;;;;;18.74;55.50;101078.03;7388013;19;1515;-38
2024/01/26 05:39:20;;;;;;;;;;;;;;;18.68;55.38;101092.78;7389619;19;1039;-38
2024/01/26 05:41:48;;;;;;;;;;;;;;;18.68;55.38;101099.03;7372522;19;1620;-38
2024/01/26 05:44:17;;;;;;;;;;;;;;;18.66;55.28;101089.38;7386846;19;1481;-38
2024/01/26 05:46:45;;;;;;;;;;;;;;;18.69;55.30;101095.34;7390936;19;1640;-38
2024/01/26 05:49:13;;;;;;;;;;;;;;;18.63;55.35;101103.03;7390244;19;1873;-38
2024/01/26 05:51:44;;;;;;;;;;;;;;;18.61;55.38;101102.31;7391574;19;1759;-38
2024/01/26 05:54:13;;;;;;;;;;;;;;;18.61;55.21;101100.47;7391023;19;1255;-38
2024/01/26 05:56:41;;;;;;;;;;;;;;;18.62;55.13;101102.19;7390328;19;1492;-38
2024/01/26 05:59:10;;;;;;;;;;;;;;;18.55;55.33;101103.66;7391493;19;1569;-38
2024/01/26 06:01:38;;;;;;;;;;;;;;;18.56;55.04;101094.66;7390044;19;1480;-38
2024/01/26 06:04:07;;;;;;;;;;;;;;;18.58;55.10;101100.75;7389938;19;1322;-39
2024/01/26 06:06:36;;;;;;;;;;;;;;;18.58;54.90;101095.41;7391033;19;1536;-38
2024/01/26 06:09:07;;;;;;;;;;;;;;;18.68;54.65;101101.69;7389266;19;1838;-38
2024/01/26 06:11:35;;;;;;;;;;;;;;;18.68;54.51;101100.81;7387855;19;1863;-38
2024/01/26 06:14:04;;;;;;;;;;;;;;;18.67;54.51;101108.03;7392951;19;947;-38
2024/01/26 06:16:32;;;;;;;;;;;;;;;18.64;54.41;101108.28;7386130;19;1789;-38
2024/01/26 06:19:00;;;;;;;;;;;;;;;18.69;54.39;101122.13;7388236;19;1404;-38
2024/01/26 06:21:28;;;;;;;;;;;;;;;18.71;54.31;101118.50;7388992;19;1264;-38
2024/01/26 06:23:57;;;;;;;;;;;;;;;18.72;54.06;101118.38;7385930;19;1382;-38
2024/01/26 06:26:28;;;;;;;;;;;;;;;18.78;54.10;101127.72;7389633;19;1482;-38
2024/01/26 06:28:56;;;;;;;;;;;;;;;18.72;53.99;101118.38;7387709;19;1847;-38
2024/01/26 06:31:27;;;;;;;;;;;;;;;18.80;53.56;101131.16;7387430;19;1354;-38
2024/01/26 06:33:55;;;;;;;;;;;;;;;18.77;53.44;101112.63;7389950;19;1223;-38
2024/01/26 06:36:24;;;;;;;;;;;;;;;18.62;53.58;101112.03;7387733;19;1373;-38
2024/01/26 06:38:52;;;;;;;;;;;;;;;18.20;54.83;101134.09;7389523;19;1594;-38
2024/01/26 06:41:21;;;;;;;;;;;;;;;17.77;54.68;101125.91;7374116;19;1809;-38
2024/01/26 06:43:53;;;;;;;;;;;;;;;17.53;55.28;101128.59;7387518;19;1657;-38
2024/01/26 06:46:24;;;;;;;;;;;;;;;17.38;55.83;101131.47;7386089;19;1499;-38
2024/01/26 06:48:52;;;;;;;;;;;;;;;17.33;55.94;101140.81;7386300;19;1861;-38
2024/01/26 06:51:18;;;;;;;;;;;;;;;17.31;55.95;101132.94;7387125;19;1381;-38
2024/01/26 07:46:56;;;;;;;;;;;;;;;12.98;46.53;101249.72;6891239;19;9999994;-74
2024/01/26 07:49:25;;;;;;;;;;;;;;;13.40;45.94;101242.97;7420493;19;1476;-74
2024/01/26 07:51:53;;;;;;;;;;;;;;;13.34;46.11;101246.81;7416459;19;1526;-74
2024/01/26 07:54:21;;;;;;;;;;;;;;;13.41;46.09;101247.31;7417956;19;1481;-74
2024/01/26 07:56:49;;;;;;;;;;;;;;;13.65;46.14;101239.78;7418782;19;1367;-74
2024/01/26 07:59:18;;;;;;;;;;;;;;;14.13;47.07;101245.78;7419283;19;1177;-73
2024/01/26 08:02:54;;;;;;;;;;;;;;;14.75;48.13;101236.75;6859567;19;9999893;-73
2024/01/26 08:05:23;;;;;;;;;;;;;;;15.07;47.50;101238.19;7418047;19;1525;-77
2024/01/26 08:07:51;;;;;;;;;;;;;;;15.32;47.91;101236.63;7424015;19;1416;-75
2024/01/26 08:10:20;;;;;;;;;;;;;;;15.55;48.54;101236.94;7421781;19;1335;-75
2024/01/26 08:12:48;;;;;;;;;;;;;;;15.61;48.57;101232.03;7417133;19;1377;-75
2024/01/26 08:15:17;;;;;;;;;;;;;;;15.62;48.46;101255.09;7421818;19;1444;-75
2024/01/26 08:17:45;;;;;;;;;;;;;;;15.60;48.59;101258.81;7421402;19;1378;-75
2024/01/26 08:20:16;;;;;;;;;;;;;;;15.69;49.10;101260.84;7421316;19;1401;-75
2024/01/26 08:22:45;;;;;;;;;;;;;;;15.65;49.34;101265.53;7421706;19;1846;-75
2024/01/26 08:25:14;;;;;;;;;;;;;;;15.70;49.13;101278.56;7422322;19;1683;-75
2024/01/26 08:27:42;;;;;;;;;;;;;;;15.84;49.25;101275.88;7420843;19;1326;-75
2024/01/26 08:30:11;;;;;;;;;;;;;;;15.94;49.51;101277.94;7425124;19;1216;-75
2024/01/26 08:32:39;;;;;;;;;;;;;;;15.94;49.94;101275.28;7423991;19;1337;-75
2024/01/26 08:35:09;;;;;;;;;;;;;;;16.38;48.79;101268.72;7424415;19;1437;-76
2024/01/26 08:37:40;;;;;;;;;;;;;;;16.94;47.80;101266.56;7424257;19;1402;-75
2024/01/26 08:40:10;;;;;;;;;;;;;;;17.47;47.18;101271.66;7419019;19;1656;-75
2024/01/26 08:42:38;;;;;;;;;;;;;;;17.87;46.55;101282.94;7418775;19;1846;-75
2024/01/26 08:45:08;;;;;;;;;;;;;;;18.08;46.16;101279.59;7421288;19;1424;-76
2024/01/26 08:47:36;;;;;;;;;;;;;;;18.20;46.28;101284.00;7424595;19;1390;-75
2024/01/26 08:50:05;;;;;;;;;;;;;;;18.33;46.12;101283.94;7422009;19;1139;-75
2024/01/26 08:52:33;;;;;;;;;;;;;;;18.45;46.06;101274.09;7421298;19;1392;-75
2024/01/26 08:55:04;;;;;;;;;;;;;;;18.33;46.52;101283.94;7424748;19;1917;-75
2024/01/26 08:57:33;;;;;;;;;;;;;;;18.29;47.01;101274.44;7424274;19;1454;-75
2024/01/26 09:00:04;;;;;;;;;;;;;;;18.36;46.81;101278.31;7424131;19;1845;-76
2024/01/26 09:02:32;;;;;;;;;;;;;;;18.33;47.03;101277.72;7404529;19;1846;-75
2024/01/26 09:05:00;;;;;;;;;;;;;;;18.20;47.17;101270.63;7422883;19;1501;-75
2024/01/26 09:07:29;;;;;;;;;;;;;;;18.24;47.59;101268.56;7423678;19;1537;-75
2024/01/26 09:09:57;;;;;;;;;;;;;;;18.23;47.40;101291.81;7424489;19;2101;-75
2024/01/26 09:12:28;;;;;;;;;;;;;;;18.35;47.63;101290.00;7416024;19;1698;-75
2024/01/26 09:14:56;;;;;;;;;;;;;;;18.34;47.59;101282.94;7395594;19;1405;-75
2024/01/26 09:17:24;;;;;;;;;;;;;;;18.30;48.04;101289.50;7395981;19;1022;-76
2024/01/26 09:19:53;;;;;;;;;;;;;;;18.27;48.19;101279.91;7396011;19;1057;-75
2024/01/26 09:22:21;;;;;;;;;;;;;;;18.26;48.15;101286.25;7392818;19;2461;-75
2024/01/26 09:24:50;;;;;;;;;;;;;;;18.26;48.30;101288.91;7392225;19;1583;-75
2024/01/26 09:27:20;;;;;;;;;;;;;;;18.28;48.36;101270.03;7395877;19;1379;-75
2024/01/26 09:29:51;;;;;;;;;;;;;;;18.33;48.29;101272.38;7393925;19;1744;-75
2024/01/26 09:32:20;;;;;;;;;;;;;;;18.38;48.32;101275.53;7395382;19;1610;-75
2024/01/26 09:34:48;;;;;;;;;;;;;;;18.44;48.26;101259.88;7394105;19;1571;-76
2024/01/26 09:37:16;;;;;;;;;;;;;;;18.53;48.00;101257.44;7393164;19;1591;-76
2024/01/26 09:39:45;;;;;;;;;;;;;;;18.60;48.12;101259.50;7390868;19;1651;-75
2024/01/26 09:42:14;;;;;;;;;;;;;;;18.61;48.19;101271.91;7393597;19;1883;-75
2024/01/26 09:44:42;;;;;;;;;;;;;;;18.71;48.05;101249.75;7395591;19;1108;-75
2024/01/26 09:47:15;;;;;;;;;;;;;;;18.82;47.78;101252.47;7395618;19;1041;-75
2024/01/26 09:49:47;;;;;;;;;;;;;;;18.90;47.80;101259.88;7393789;19;1501;-75
2024/01/26 09:52:16;;;;;;;;;;;;;;;18.88;47.92;101265.41;7393691;19;1530;-75
2024/01/26 09:54:45;;;;;;;;;;;;;;;18.62;48.63;101241.50;7394841;19;1521;-75
2024/01/26 09:57:13;;;;;;;;;;;;;;;18.22;49.61;101271.38;7394349;19;1396;-75
2024/01/26 09:59:42;;;;;;;;;;;;;;;17.94;50.05;101269.09;7393851;19;1821;-75
2024/01/26 10:02:11;;;;;;;;;;;;;;;17.73;50.66;101268.88;7378790;19;1850;-75
2024/01/26 10:04:42;;;;;;;;;;;;;;;17.61;50.99;101257.28;7394754;19;1729;-76
2024/01/26 10:07:11;;;;;;;;;;;;;;;17.48;51.46;101249.28;7394567;19;1658;-75
2024/01/26 10:09:39;;;;;;;;;;;;;;;17.33;51.51;101256.63;7393626;19;1839;-75
2024/01/26 10:12:10;;;;;;;;;;;;;;;17.29;51.87;101255.16;7392533;19;1676;-75
2024/01/26 10:14:39;;;;;;;;;;;;;;;17.23;51.94;101245.75;7395819;19;1015;-76
2024/01/26 10:17:08;;;;;;;;;;;;;;;17.23;51.95;101252.91;7391008;19;1486;-76
2024/01/26 10:19:36;;;;;;;;;;;;;;;17.21;52.12;101252.16;7393249;19;1831;-75
2024/01/26 10:22:07;;;;;;;;;;;;;;;17.15;52.10;101252.59;7392467;19;1853;-75
2024/01/26 10:24:36;;;;;;;;;;;;;;;17.10;52.42;101236.91;7389622;19;2001;-75
2024/01/26 10:27:04;;;;;;;;;;;;;;;17.24;52.31;101241.25;7392547;19;1481;-76
2024/01/26 10:29:34;;;;;;;;;;;;;;;17.73;51.45;101255.50;7392805;19;1560;-75
2024/01/26 10:32:03;;;;;;;;;;;;;;;18.27;50.26;101229.03;7393012;19;1687;-75
2024/01/26 10:34:34;;;;;;;;;;;;;;;18.63;49.49;101243.19;7392327;19;1870;-75
2024/01/26 10:37:03;;;;;;;;;;;;;;;18.74;49.42;101236.09;7393450;19;1695;-75
2024/01/26 10:39:36;;;;;;;;;;;;;;;18.90;49.17;101217.88;7392604;19;1732;-76
2024/01/26 10:42:06;;;;;;;;;;;;;;;18.99;48.93;101225.16;7393379;19;1857;-75
2024/01/26 10:44:37;;;;;;;;;;;;;;;19.13;48.65;101209.78;7393533;19;942;-75
2024/01/26 10:47:06;;;;;;;;;;;;;;;19.20;48.73;101208.28;7392015;19;1919;-75
2024/01/26 10:49:36;;;;;;;;;;;;;;;19.14;48.78;101208.78;7392462;19;1947;-75
2024/01/26 10:52:05;;;;;;;;;;;;;;;18.90;49.42;101223.25;7389130;19;1916;-75
2024/01/26 10:54:37;;;;;;;;;;;;;;;18.66;49.80;101221.53;7392344;19;1473;-75
2024/01/26 10:57:05;;;;;;;;;;;;;;;18.22;51.06;101243.75;7391968;19;1742;-75
2024/01/26 10:59:35;;;;;;;;;;;;;;;17.36;51.49;101128.06;7388683;19;1803;-75
2024/01/26 11:02:04;;;;;;;;;;;;;;;17.84;51.79;101223.44;7379568;19;1836;-75
2024/01/26 11:04:33;;;;;;;;;;;;;;;17.62;52.14;101226.88;7390330;19;1514;-75
2024/01/26 11:07:01;;;;;;;;;;;;;;;17.54;52.63;101227.44;7389290;19;1949;-75
2024/01/26 11:09:32;;;;;;;;;;;;;;;17.52;52.31;101218.69;7391158;19;1219;-75
2024/01/26 11:12:03;;;;;;;;;;;;;;;17.47;52.58;101215.50;7390701;19;1393;-75
2024/01/26 11:14:34;;;;;;;;;;;;;;;17.40;52.87;101217.78;7392792;19;1100;-75
2024/01/26 11:17:10;;;;;;;;;;;;;;;17.36;53.09;101235.00;7391135;19;1243;-76
2024/01/26 11:19:38;;;;;;;;;;;;;;;17.37;53.09;101234.06;7389840;19;1462;-76
2024/01/26 11:22:09;;;;;;;;;;;;;;;17.28;52.91;101216.00;7390623;19;1864;-75
2024/01/26 11:24:37;;;;;;;;;;;;;;;17.24;53.19;101203.84;7388756;19;1397;-75
2024/01/26 11:27:08;;;;;;;;;;;;;;;17.44;52.91;101211.22;7391241;19;1611;-75
2024/01/26 11:29:37;;;;;;;;;;;;;;;17.95;52.04;101217.28;7390413;19;1232;-75
2024/01/26 11:32:15;;;;;;;;;;;;;;;18.48;50.81;101218.47;7387805;19;1409;-75
2024/01/26 11:34:44;;;;;;;;;;;;;;;18.71;50.31;101196.19;7390764;19;1109;-75
2024/01/26 11:37:14;;;;;;;;;;;;;;;18.72;50.40;101208.59;7390532;19;1061;-74
2024/01/26 11:39:43;;;;;;;;;;;;;;;18.82;50.23;101204.22;7390768;19;1899;-74
2024/01/26 11:42:14;;;;;;;;;;;;;;;18.90;49.89;101200.94;7392008;19;1861;-74
2024/01/26 11:44:43;;;;;;;;;;;;;;;18.96;50.03;101197.75;7391506;19;1037;-74
2024/01/26 11:47:11;;;;;;;;;;;;;;;19.01;49.98;101198.25;7391487;19;1401;-74
2024/01/26 11:49:41;;;;;;;;;;;;;;;19.14;49.70;101187.34;7391087;19;1825;-74
2024/01/26 11:52:09;;;;;;;;;;;;;;;19.05;49.76;101178.25;7391178;19;1480;-74
2024/01/26 11:54:38;;;;;;;;;;;;;;;18.84;50.32;101202.28;7389462;19;1703;-74
2024/01/26 11:57:06;;;;;;;;;;;;;;;18.41;51.34;101211.03;7391221;19;967;-74
2024/01/26 11:59:37;;;;;;;;;;;;;;;18.03;52.21;101212.22;7389508;19;1822;-74
2024/01/26 12:02:06;;;;;;;;;;;;;;;17.79;52.90;101206.88;7387209;19;1885;-74
2024/01/26 12:04:34;;;;;;;;;;;;;;;17.64;53.11;101212.41;7379859;19;1631;-74
2024/01/26 12:07:03;;;;;;;;;;;;;;;17.60;53.39;101204.72;7391134;19;2019;-74
2024/01/26 12:09:32;;;;;;;;;;;;;;;17.52;53.36;101207.97;7389415;19;1393;-75
2024/01/26 12:12:00;;;;;;;;;;;;;;;17.54;53.52;101211.38;7391090;19;1283;-75
2024/01/26 12:14:29;;;;;;;;;;;;;;;17.48;53.70;101203.84;7389000;19;1402;-74
2024/01/26 12:17:00;;;;;;;;;;;;;;;17.44;53.58;101215.72;7389951;19;1596;-75
2024/01/26 12:19:28;;;;;;;;;;;;;;;17.42;53.77;101190.94;7391449;19;1496;-74
2024/01/26 12:21:57;;;;;;;;;;;;;;;17.40;53.75;101198.22;7391068;19;1849;-74
2024/01/26 12:24:25;;;;;;;;;;;;;;;17.28;53.95;101189.28;7392336;19;1814;-75
2024/01/26 12:26:55;;;;;;;;;;;;;;;17.57;53.52;101202.31;7392607;19;1668;-75
2024/01/26 12:29:26;;;;;;;;;;;;;;;18.07;52.41;101206.50;7393381;19;1123;-74
2024/01/26 12:32:04;;;;;;;;;;;;;;;18.69;50.94;101204.34;7391936;19;1619;-74
2024/01/26 12:34:33;;;;;;;;;;;;;;;18.88;50.76;101209.13;7390938;19;1537;-75
2024/01/26 12:37:02;;;;;;;;;;;;;;;18.90;50.60;101195.56;7391443;19;1255;-74
2024/01/26 12:39:30;;;;;;;;;;;;;;;18.90;50.79;101204.47;7389439;19;1318;-74
2024/01/26 12:41:59;;;;;;;;;;;;;;;18.98;50.62;101204.72;7392224;19;1854;-74
2024/01/26 12:44:31;;;;;;;;;;;;;;;18.88;50.67;101209.13;7395728;19;1911;-75
2024/01/26 12:47:03;;;;;;;;;;;;;;;18.38;51.82;101217.50;7393674;19;1915;-74
2024/01/26 12:49:32;;;;;;;;;;;;;;;17.99;52.70;101226.78;7397270;19;1571;-74
2024/01/26 12:52:01;;;;;;;;;;;;;;;17.69;53.72;101214.75;7401917;19;1407;-74
2024/01/26 12:54:30;;;;;;;;;;;;;;;17.61;53.68;101217.16;7402446;19;1721;-74
2024/01/26 12:56:59;;;;;;;;;;;;;;;17.53;53.80;101207.03;7403450;19;1392;-74
2024/01/26 12:59:28;;;;;;;;;;;;;;;17.52;53.82;101217.84;7398728;19;1709;-74
2024/01/26 13:01:56;;;;;;;;;;;;;;;17.47;53.87;101221.69;7400383;19;1233;-74
2024/01/26 13:04:28;;;;;;;;;;;;;;;17.34;54.32;101210.22;7387717;19;1849;-74
2024/01/26 13:06:57;;;;;;;;;;;;;;;17.25;54.56;101213.56;7402420;19;1389;-74
2024/01/26 13:09:26;;;;;;;;;;;;;;;17.20;54.51;101227.25;7401893;19;1484;-74
2024/01/26 13:11:56;;;;;;;;;;;;;;;17.13;54.78;101218.00;7402581;19;1040;-75
2024/01/26 13:14:25;;;;;;;;;;;;;;;17.04;54.77;101219.50;7399125;19;1495;-75
2024/01/26 13:16:53;;;;;;;;;;;;;;;17.33;54.23;101213.88;7401098;19;1600;-74
2024/01/26 13:19:21;;;;;;;;;;;;;;;17.93;53.08;101221.91;7400178;19;1904;-74
2024/01/26 13:21:52;;;;;;;;;;;;;;;18.37;52.07;101221.13;7399781;19;1765;-75
2024/01/26 13:24:22;;;;;;;;;;;;;;;18.60;51.75;101195.22;7394892;19;1841;-74
2024/01/26 13:26:50;;;;;;;;;;;;;;;18.61;51.53;101212.13;7399041;19;1392;-74
2024/01/26 13:29:19;;;;;;;;;;;;;;;18.75;51.25;101214.56;7398241;19;1620;-74
2024/01/26 13:31:47;;;;;;;;;;;;;;;18.84;50.98;101203.16;7396117;19;1525;-74
2024/01/26 13:34:15;;;;;;;;;;;;;;;18.87;51.07;101204.72;7397914;19;1575;-75
2024/01/26 13:36:44;;;;;;;;;;;;;;;18.93;50.93;101201.53;7398110;19;1686;-74
2024/01/26 13:39:15;;;;;;;;;;;;;;;18.97;50.79;101197.63;7397858;19;1316;-75
2024/01/26 13:41:44;;;;;;;;;;;;;;;18.86;50.98;101206.56;7397682;19;1093;-75
2024/01/26 13:44:12;;;;;;;;;;;;;;;18.75;51.38;101209.19;7394554;19;1942;-75
2024/01/26 13:46:41;;;;;;;;;;;;;;;18.23;52.66;101200.78;7397684;19;1390;-74
2024/01/26 13:49:09;;;;;;;;;;;;;;;17.86;53.41;101200.94;7397802;19;1219;-74
2024/01/26 13:51:37;;;;;;;;;;;;;;;17.64;53.83;101206.22;7395548;19;1415;-75